This is the latest recevied weather packets stored in our database for station/object N4HAC. If no packets are shown the sender has not sent any weather packets the latest 10 day(s).
| Time | Temp. | Humidity | Pressure | Rain* | Wind** | Luminosity | Snow |
|---|---|---|---|---|---|---|---|
| 1777582156 | 17.22° C | 39% | 1004.4 hPa | 0 mm | - | 149 W/m² | - |
| 1777581555 | 16.67° C | 40% | 1004.5 hPa | 0 mm | - | 146 W/m² | - |
| 1777581250 | 16.67° C | 41% | 1004.4 hPa | 0 mm | - | 177 W/m² | - |
| 1777580945 | 16.67° C | 39% | 1004.4 hPa | 0 mm | - | 161 W/m² | - |
| 1777580645 | 16.67° C | 38% | 1004.3 hPa | 0 mm | - | 176 W/m² | - |
| 1777580340 | 16.67° C | 40% | 1004.1 hPa | 0 mm | - | 141 W/m² | - |
| 1777580037 | 16.67° C | 38% | 1004.1 hPa | 0 mm | - | 140 W/m² | - |
| 1777579733 | 16.67° C | 37% | 1003.9 hPa | 0 mm | - | 167 W/m² | - |
| 1777579431 | 16.67° C | 37% | 1004.2 hPa | 0 mm | - | 117 W/m² | - |
| 1777579127 | 16.67° C | 36% | 1004.3 hPa | 0 mm | - | 142 W/m² | - |
| 1777578826 | 17.22° C | 37% | 1004.1 hPa | 0 mm | - | 150 W/m² | - |
| 1777577914 | 17.22° C | 38% | 1004 hPa | 0 mm | - | 793 W/m² | - |
| 1777576095 | 16.67° C | 43% | 1003.7 hPa | 0 mm | - | 185 W/m² | - |
| 1777574273 | 16.67° C | 45% | 1003.7 hPa | 0 mm | - | 216 W/m² | - |
| 1777573968 | 17.78° C | 41% | 1003.6 hPa | 0 mm | - | 209 W/m² | - |
| 1777573663 | 17.22° C | 42% | 1003.8 hPa | 0 mm | - | 1006 W/m² | - |
| 1777572446 | 17.78° C | 42% | 1003.9 hPa | 0 mm | - | 264 W/m² | - |
| 1777569712 | 17.22° C | 42% | 1003.8 hPa | 0 mm | - | 953 W/m² | - |
| 1777568195 | 17.22° C | 45% | 1003.8 hPa | 0 mm | - | 958 W/m² | - |
| 1777566985 | 16.67° C | 48% | 1003.9 hPa | 0 mm | - | 921 W/m² | - |
| 1777566076 | 17.78° C | 47% | 1004.1 hPa | 0 mm | - | 956 W/m² | - |
| 1777565772 | 17.22° C | 54% | 1004.3 hPa | 0 mm | - | 901 W/m² | - |
| 1777564861 | 16.67° C | 52% | 1004.4 hPa | 0 mm | - | 296 W/m² | - |
| 1777563948 | 16.67° C | 53% | 1004.4 hPa | 0 mm | - | 391 W/m² | - |
| 1777563344 | 15.56° C | 57% | 1004.4 hPa | 0 mm | - | 329 W/m² | - |
* Rain latest hour (hover to see other rain measurements)
** Current wind speed in m/s (hover to see current wind gust speed)